Georg Jacob — A8XG5 — position and weather

sailwx.info

Track history (hours):
 
Tides and Currents Weather Stations Pressure Air Temp Water Temp Dewpoint Dewpoint Depression Visibility Wind Speed Wind Dir Waves Ship Positions

Georg Jacob

Last reported at 2015-Apr-25 09:25 UTC. Time now 2015-May-06 00:22 UTC.
Position N 49°52' W 003°15'.
Warning: this ship's position is 10 days out of date.

Length 229 m; draft 13 m.

Type: Tanker. MMSI: 636092136.

Date/timePositionNaut miles runAvg speedWind from/ knotsBaromVisibWave heightAir tempDewpointWater temp
2015-Apr-25 09:25N 49°52' W 003°15'1611.8
2015-Apr-25 08:03N 49°59' W 002°53'612.6
2015-Apr-25 07:32N 50°01' W 002°43'6513.0
2015-Apr-25 02:31N 50°19' W 001°05'1310.0
2015-Apr-25 01:14N 50°22' W 000°46'8 9.5
2015-Apr-25 00:26N 50°24' W 000°34'2310.6
2015-Apr-24 22:15N 50°30' E 000°01'812.0
2015-Apr-24 21:34N 50°33' E 000°13'1312.8
2015-Apr-24 20:33N 50°37' E 000°32'1312.5
2015-Apr-24 19:33N 50°44' E 000°49'1211.8
2015-Apr-24 18:33N 50°52' E 001°03'1110.7
2015-Apr-24 17:33N 50°59' E 001°16'9 9.4
2015-Apr-24 16:33N 51°05' E 001°27'9 9.1
2015-Apr-24 15:34N 51°10' E 001°39'1010.0
2015-Apr-24 14:33N 51°17' E 001°50'1111.0
2015-Apr-24 13:33N 51°24' E 002°03'1211.8
2015-Apr-24 12:34N 51°21' E 002°21'1212.1
2015-Apr-24 11:34N 51°23' E 002°40'1010.4
2015-Apr-24 10:34N 51°25' E 002°57'1110.5
2015-Apr-24 09:34N 51°25' E 003°13'1312.8
2015-Apr-24 08:33N 51°26' E 003°34'1010.2
2015-Apr-24 07:33N 51°21' E 003°48'10 9.5
2015-Apr-24 06:34N 51°25' E 004°02'7 6.9
2015-Apr-24 05:33N 51°24' E 004°13'4 4.1
2015-Apr-24 04:33N 51°21' E 004°17'0 0.0
2015-Apr-24 03:33N 51°21' E 004°17'1 0.9
2015-Apr-24 02:33N 51°20' E 004°18'4 4.0
2015-Apr-24 01:32N 51°16' E 004°21'0 0.0
2015-Apr-24 00:33N 51°16' E 004°21'0 0.0
2015-Apr-23 23:11N 51°16' E 004°21'0 0.0
2015-Apr-23 22:32N 51°16' E 004°21'0 0.0
2015-Apr-23 21:32N 51°16' E 004°21'0 0.0
2015-Apr-23 20:32N 51°16' E 004°21'0 0.0
2015-Apr-23 19:17N 51°16' E 004°21'0 0.0
2015-Apr-23 18:32N 51°16' E 004°21'0 0.0
2015-Apr-23 17:29N 51°16' E 004°21'0 0.0
2015-Apr-23 16:32N 51°16' E 004°21'0 0.0
2015-Apr-23 15:20N 51°16' E 004°21'0 0.0
2015-Apr-23 14:32N 51°16' E 004°21'0 0.0
2015-Apr-23 13:32N 51°16' E 004°21'0 0.0
2015-Apr-23 12:29N 51°16' E 004°21'0 0.0
2015-Apr-23 11:23N 51°16' E 004°21'0 0.0
2015-Apr-23 10:29N 51°16' E 004°21'0 0.0
2015-Apr-23 09:29N 51°16' E 004°21'0 0.0
2015-Apr-23 08:29N 51°16' E 004°21'0 0.0
2015-Apr-23 07:29N 51°16' E 004°21'0 0.0
2015-Apr-23 06:26N 51°16' E 004°21'0 0.0
2015-Apr-23 05:29N 51°16' E 004°21'0 0.0
2015-Apr-23 04:29N 51°16' E 004°21'0 0.0
2015-Apr-23 03:32N 51°16' E 004°21'0 0.0
2015-Apr-23 02:32N 51°16' E 004°21'0 0.0
2015-Apr-23 01:32N 51°16' E 004°21'0 0.0
2015-Apr-23 00:32N 51°16' E 004°21'0 0.0
2015-Apr-22 23:32N 51°16' E 004°21'0 0.0
2015-Apr-22 22:29N 51°16' E 004°21'0 0.0
2015-Apr-22 21:23N 51°16' E 004°21'0 0.0
2015-Apr-22 20:32N 51°16' E 004°21'0 0.0
2015-Apr-22 19:29N 51°16' E 004°21'0 0.0
2015-Apr-22 18:26N 51°16' E 004°21'0 0.0
2015-Apr-22 17:29N 51°16' E 004°21'0 0.0
2015-Apr-22 16:32N 51°16' E 004°21'0 0.0
2015-Apr-22 15:29N 51°16' E 004°21'0 0.0
2015-Apr-22 14:32N 51°16' E 004°21'0 0.0
2015-Apr-22 13:32N 51°16' E 004°21'0 0.0
2015-Apr-22 12:23N 51°16' E 004°21'0 0.0
2015-Apr-22 11:32N 51°16' E 004°21'0 0.0
2015-Apr-22 10:32N 51°16' E 004°21'0 0.0
2015-Apr-22 09:23N 51°16' E 004°21'0 0.0
2015-Apr-22 08:08N 51°16' E 004°21'0 0.0
2015-Apr-22 07:29N 51°16' E 004°21'0 0.0
2015-Apr-22 06:29N 51°16' E 004°21'0 0.0
2015-Apr-22 05:30N 51°16' E 004°21'0 0.0
2015-Apr-22 04:23N 51°16' E 004°21'0 0.0
2015-Apr-22 03:32N 51°16' E 004°21'0 0.0
2015-Apr-22 02:32N 51°16' E 004°21'0 0.0
2015-Apr-22 01:23N 51°16' E 004°21'0 0.0
2015-Apr-22 00:32N 51°16' E 004°21'0 0.0
2015-Apr-21 23:32N 51°16' E 004°21'0 0.0
2015-Apr-21 22:29N 51°16' E 004°21'0 0.0
2015-Apr-21 21:29N 51°16' E 004°21'0 0.0
2015-Apr-21 20:29N 51°16' E 004°21'0 0.0
2015-Apr-21 19:20N 51°16' E 004°21'0 0.0
2015-Apr-21 18:32N 51°16' E 004°21'0 0.0
2015-Apr-21 17:29N 51°16' E 004°21'0 0.0
2015-Apr-21 16:05N 51°16' E 004°21'0 0.0
2015-Apr-21 15:29N 51°16' E 004°21'0 0.0
2015-Apr-21 14:32N 51°16' E 004°21'0 0.0
2015-Apr-21 13:32N 51°16' E 004°21'0 0.0
2015-Apr-21 12:26N 51°16' E 004°21'0 0.0
2015-Apr-21 11:26N 51°16' E 004°21'0 0.0
2015-Apr-21 10:26N 51°16' E 004°21'0 0.0
2015-Apr-21 09:23N 51°16' E 004°21'0 0.0
2015-Apr-21 08:32N 51°16' E 004°21'0 0.0
2015-Apr-21 07:29N 51°16' E 004°21'0 0.0
2015-Apr-21 06:29N 51°16' E 004°21'0 0.0
2015-Apr-21 05:29N 51°16' E 004°21'0 0.0
2015-Apr-21 04:32N 51°16' E 004°21'0 0.0
2015-Apr-21 03:32N 51°16' E 004°21'0 0.0
2015-Apr-21 02:26N 51°16' E 004°21'0 0.0
2015-Apr-21 01:26N 51°16' E 004°21'0 0.0
2015-Apr-21 00:32N 51°16' E 004°21'0 0.0
2015-Apr-20 23:23N 51°16' E 004°21'0 0.0
2015-Apr-20 22:26N 51°16' E 004°21'0 0.0
2015-Apr-20 21:29N 51°16' E 004°21'0 0.0
2015-Apr-20 20:29N 51°16' E 004°21'0 0.0
2015-Apr-20 19:32N 51°16' E 004°21'0 0.0
2015-Apr-20 18:32N 51°16' E 004°21'0 0.0
2015-Apr-20 17:32N 51°16' E 004°21'0 0.0
2015-Apr-20 16:29N 51°16' E 004°21'0 0.0
2015-Apr-20 15:29N 51°16' E 004°21'0 0.0
2015-Apr-20 14:29N 51°16' E 004°21'0 0.0
2015-Apr-20 13:29N 51°16' E 004°21'0 0.0
2015-Apr-20 12:29N 51°16' E 004°21'0 0.0
2015-Apr-20 11:29N 51°16' E 004°21'0 0.0
2015-Apr-20 10:20N 51°16' E 004°21'0 0.0
2015-Apr-20 09:32N 51°16' E 004°21'0 0.0
2015-Apr-20 08:20N 51°16' E 004°21'0 0.0
2015-Apr-20 07:32N 51°16' E 004°21'0 0.0
2015-Apr-20 06:32N 51°16' E 004°21'0 0.0
2015-Apr-20 05:32N 51°16' E 004°21'0 0.0
2015-Apr-20 04:26N 51°16' E 004°21'0 0.0
2015-Apr-20 03:32N 51°16' E 004°21'0 0.0
2015-Apr-20 02:23N 51°16' E 004°21'0 0.0
2015-Apr-20 01:32N 51°16' E 004°21'0 0.0
2015-Apr-20 00:32N 51°16' E 004°21'0 0.0
2015-Apr-19 23:29N 51°16' E 004°21'0 0.0
2015-Apr-19 22:26N 51°16' E 004°21'0 0.0
2015-Apr-19 21:11N 51°16' E 004°21'0 0.0
2015-Apr-19 20:32N 51°16' E 004°21'0 0.0
2015-Apr-19 19:32N 51°16' E 004°21'0 0.0
2015-Apr-19 18:32N 51°16' E 004°21'0 0.0
2015-Apr-19 17:32N 51°16' E 004°21'0 0.0
2015-Apr-19 16:32N 51°16' E 004°21'0 0.0
2015-Apr-19 15:32N 51°16' E 004°21'0 0.0
2015-Apr-19 14:23N 51°16' E 004°21'0 0.0
2015-Apr-19 13:29N 51°16' E 004°21'0 0.0
2015-Apr-19 12:32N 51°16' E 004°21'0 0.0
2015-Apr-19 11:29N 51°16' E 004°21'0 0.0
2015-Apr-19 10:29N 51°16' E 004°21'0 0.0
2015-Apr-19 09:32N 51°16' E 004°21'0 0.0
2015-Apr-19 08:23N 51°16' E 004°21'0 0.0
2015-Apr-19 07:29N 51°16' E 004°21'0 0.0
2015-Apr-19 06:29N 51°16' E 004°21'0 0.0
2015-Apr-19 05:26N 51°16' E 004°21'0 0.0
2015-Apr-19 04:32N 51°16' E 004°21'0 0.0
2015-Apr-19 03:32N 51°16' E 004°21'0 0.0
2015-Apr-19 02:33N 51°16' E 004°21'0 0.0
2015-Apr-19 01:32N 51°16' E 004°21'0 0.0
2015-Apr-19 00:31N 51°16' E 004°21'0 0.0
2015-Apr-18 23:33N 51°16' E 004°21'4 4.5
2015-Apr-18 22:34N 51°20' E 004°18'1 0.7
2015-Apr-18 21:33N 51°21' E 004°17'1 1.0
2015-Apr-18 20:34N 51°21' E 004°15'7 6.6
2015-Apr-18 19:34N 51°22' E 004°05'6 5.7
2015-Apr-18 18:33N 51°22' E 003°56'8 8.5
2015-Apr-18 17:33N 51°24' E 003°42'6 5.7
2015-Apr-18 16:33N 51°25' E 003°34'1010.2
2015-Apr-18 15:33N 51°24' E 003°17'1111.1
2015-Apr-18 14:33N 51°27' E 002°60'1312.7
2015-Apr-18 13:33N 51°38' E 003°11'10 9.7
2015-Apr-18 12:33N 51°46' E 003°19'1 1.3
2015-Apr-18 11:28N 51°47' E 003°21'0 0.1
2015-Apr-18 10:31N 51°47' E 003°21'0 0.0
2015-Apr-18 08:16N 51°47' E 003°21'0 0.0
2015-Apr-18 05:25N 51°47' E 003°21'0 0.0
2015-Apr-18 04:25N 51°47' E 003°21'0 0.2
2015-Apr-18 03:25N 51°47' E 003°21'0 0.1
2015-Apr-18 02:28N 51°47' E 003°21'0 0.0
2015-Apr-18 01:31N 51°47' E 003°21'0 0.0
2015-Apr-18 00:25N 51°47' E 003°21'0 0.2
2015-Apr-17 23:16N 51°47' E 003°21'0 0.0
2015-Apr-17 22:22N 51°47' E 003°21'0 0.0
2015-Apr-17 20:28N 51°47' E 003°21'0 0.0
2015-Apr-17 18:22N 51°47' E 003°21'0 0.0
2015-Apr-17 17:31N 51°47' E 003°21'0 0.0
2015-Apr-17 15:19N 51°47' E 003°21'0 0.3
2015-Apr-17 14:31N 51°47' E 003°21'0 0.0
2015-Apr-17 13:22N 51°47' E 003°21'0 0.0
2015-Apr-17 12:28N 51°47' E 003°21'0 0.1
2015-Apr-17 11:28N 51°47' E 003°21'0 0.1
2015-Apr-17 10:28N 51°47' E 003°21'0 0.0
2015-Apr-17 07:06N 51°47' E 003°21'0 0.0
2015-Apr-17 06:28N 51°47' E 003°21'0 0.0
2015-Apr-17 05:25N 51°47' E 003°21'0 0.0
2015-Apr-17 04:25N 51°47' E 003°21'0 0.0
2015-Apr-17 03:16N 51°47' E 003°21'0 0.2
2015-Apr-17 02:31N 51°47' E 003°21'0 0.1
2015-Apr-17 01:28N 51°47' E 003°21'0 0.0
2015-Apr-17 00:25N 51°47' E 003°21'0 0.0
2015-Apr-16 23:31N 51°47' E 003°21'0 0.3
2015-Apr-16 22:31N 51°47' E 003°21'0 0.0
2015-Apr-16 21:16N 51°47' E 003°21'0 0.0
2015-Apr-16 20:32N 51°47' E 003°21'0 0.0
2015-Apr-16 19:28N 51°47' E 003°21'0 0.0
2015-Apr-16 18:31N 51°47' E 003°21'0 0.0
2015-Apr-16 17:31N 51°47' E 003°21'0 0.0
2015-Apr-16 16:31N 51°47' E 003°21'0 0.0
2015-Apr-16 15:31N 51°47' E 003°21'0 0.1
2015-Apr-16 14:28N 51°47' E 003°21'0 0.2
2015-Apr-16 13:28N 51°47' E 003°21'0 0.1
2015-Apr-16 12:31N 51°47' E 003°21'0 0.0
2015-Apr-16 11:31N 51°47' E 003°21'0 0.1
2015-Apr-16 10:28N 51°47' E 003°21'0 0.2
2015-Apr-16 09:31N 51°47' E 003°21'0 0.0
2015-Apr-16 08:16N 51°47' E 003°21'0 0.0
2015-Apr-16 07:31N 51°47' E 003°21'0 0.0
2015-Apr-16 06:33N 51°47' E 003°21'0 0.0
2015-Apr-16 05:25N 51°47' E 003°21'0 0.0
2015-Apr-16 04:25N 51°47' E 003°21'0 0.0
2015-Apr-16 03:19N 51°47' E 003°21'0 0.2
2015-Apr-16 02:22N 51°47' E 003°21'0 0.1
2015-Apr-16 01:31N 51°47' E 003°21'0 0.0
2015-Apr-16 00:31N 51°47' E 003°21'0 0.0
2015-Apr-15 23:25N 51°47' E 003°21'0 0.0
2015-Apr-15 22:31N 51°47' E 003°21'0 0.2
2015-Apr-15 21:28N 51°47' E 003°21'0 0.0
2015-Apr-15 20:19N 51°47' E 003°21'0 0.0
2015-Apr-15 19:28N 51°47' E 003°21'0 0.0
2015-Apr-15 18:31N 51°47' E 003°21'0 0.0
2015-Apr-15 17:28N 51°47' E 003°21'0 0.0
2015-Apr-15 16:31N 51°47' E 003°21'0 0.2
2015-Apr-15 15:15N 51°47' E 003°21'0 0.1
2015-Apr-15 14:31N 51°47' E 003°21'0 0.0
2015-Apr-15 13:28N 51°47' E 003°21'0 0.0
2015-Apr-15 12:33N 51°47' E 003°21'0 0.0
2015-Apr-15 11:30N 51°47' E 003°21'0 0.0
2015-Apr-15 10:28N 51°47' E 003°21'0 0.0
2015-Apr-15 09:31N 51°47' E 003°21'  
Track history (hours):
 
Tides and Currents Weather Stations Pressure Air Temp Water Temp Dewpoint Dewpoint Depression Visibility Wind Speed Wind Dir Waves Ship Positions

Georg Jacob

Last reported at 2015-Apr-25 09:25 UTC. Time now 2015-May-06 00:22 UTC.
Position N 49°52' W 003°15'.
Warning: this ship's position is 10 days out of date.

Length 229 m; draft 13 m.

Type: Tanker. MMSI: 636092136.

Date/timePositionNaut miles runAvg speedWind from/ knotsBaromVisibWave heightAir tempDewpointWater temp
2015-Apr-25 09:25N 49°52' W 003°15'1611.8
2015-Apr-25 08:03N 49°59' W 002°53'612.6
2015-Apr-25 07:32N 50°01' W 002°43'6513.0
2015-Apr-25 02:31N 50°19' W 001°05'1310.0
2015-Apr-25 01:14N 50°22' W 000°46'8 9.5
2015-Apr-25 00:26N 50°24' W 000°34'2310.6
2015-Apr-24 22:15N 50°30' E 000°01'812.0
2015-Apr-24 21:34N 50°33' E 000°13'1312.8
2015-Apr-24 20:33N 50°37' E 000°32'1312.5
2015-Apr-24 19:33N 50°44' E 000°49'1211.8
2015-Apr-24 18:33N 50°52' E 001°03'1110.7
2015-Apr-24 17:33N 50°59' E 001°16'9 9.4
2015-Apr-24 16:33N 51°05' E 001°27'9 9.1
2015-Apr-24 15:34N 51°10' E 001°39'1010.0
2015-Apr-24 14:33N 51°17' E 001°50'1111.0
2015-Apr-24 13:33N 51°24' E 002°03'1211.8
2015-Apr-24 12:34N 51°21' E 002°21'1212.1
2015-Apr-24 11:34N 51°23' E 002°40'1010.4
2015-Apr-24 10:34N 51°25' E 002°57'1110.5
2015-Apr-24 09:34N 51°25' E 003°13'1312.8
2015-Apr-24 08:33N 51°26' E 003°34'1010.2
2015-Apr-24 07:33N 51°21' E 003°48'10 9.5
2015-Apr-24 06:34N 51°25' E 004°02'7 6.9
2015-Apr-24 05:33N 51°24' E 004°13'4 4.1
2015-Apr-24 04:33N 51°21' E 004°17'0 0.0
2015-Apr-24 03:33N 51°21' E 004°17'1 0.9
2015-Apr-24 02:33N 51°20' E 004°18'4 4.0
2015-Apr-24 01:32N 51°16' E 004°21'0 0.0
2015-Apr-24 00:33N 51°16' E 004°21'0 0.0
2015-Apr-23 23:11N 51°16' E 004°21'0 0.0
2015-Apr-23 22:32N 51°16' E 004°21'0 0.0
2015-Apr-23 21:32N 51°16' E 004°21'0 0.0
2015-Apr-23 20:32N 51°16' E 004°21'0 0.0
2015-Apr-23 19:17N 51°16' E 004°21'0 0.0
2015-Apr-23 18:32N 51°16' E 004°21'0 0.0
2015-Apr-23 17:29N 51°16' E 004°21'0 0.0
2015-Apr-23 16:32N 51°16' E 004°21'0 0.0
2015-Apr-23 15:20N 51°16' E 004°21'0 0.0
2015-Apr-23 14:32N 51°16' E 004°21'0 0.0
2015-Apr-23 13:32N 51°16' E 004°21'0 0.0
2015-Apr-23 12:29N 51°16' E 004°21'0 0.0
2015-Apr-23 11:23N 51°16' E 004°21'0 0.0
2015-Apr-23 10:29N 51°16' E 004°21'0 0.0
2015-Apr-23 09:29N 51°16' E 004°21'0 0.0
2015-Apr-23 08:29N 51°16' E 004°21'0 0.0
2015-Apr-23 07:29N 51°16' E 004°21'0 0.0
2015-Apr-23 06:26N 51°16' E 004°21'0 0.0
2015-Apr-23 05:29N 51°16' E 004°21'0 0.0
2015-Apr-23 04:29N 51°16' E 004°21'0 0.0
2015-Apr-23 03:32N 51°16' E 004°21'0 0.0
2015-Apr-23 02:32N 51°16' E 004°21'0 0.0
2015-Apr-23 01:32N 51°16' E 004°21'0 0.0
2015-Apr-23 00:32N 51°16' E 004°21'0 0.0
2015-Apr-22 23:32N 51°16' E 004°21'0 0.0
2015-Apr-22 22:29N 51°16' E 004°21'0 0.0
2015-Apr-22 21:23N 51°16' E 004°21'0 0.0
2015-Apr-22 20:32N 51°16' E 004°21'0 0.0
2015-Apr-22 19:29N 51°16' E 004°21'0 0.0
2015-Apr-22 18:26N 51°16' E 004°21'0 0.0
2015-Apr-22 17:29N 51°16' E 004°21'0 0.0
2015-Apr-22 16:32N 51°16' E 004°21'0 0.0
2015-Apr-22 15:29N 51°16' E 004°21'0 0.0
2015-Apr-22 14:32N 51°16' E 004°21'0 0.0
2015-Apr-22 13:32N 51°16' E 004°21'0 0.0
2015-Apr-22 12:23N 51°16' E 004°21'0 0.0
2015-Apr-22 11:32N 51°16' E 004°21'0 0.0
2015-Apr-22 10:32N 51°16' E 004°21'0 0.0
2015-Apr-22 09:23N 51°16' E 004°21'0 0.0
2015-Apr-22 08:08N 51°16' E 004°21'0 0.0
2015-Apr-22 07:29N 51°16' E 004°21'0 0.0
2015-Apr-22 06:29N 51°16' E 004°21'0 0.0
2015-Apr-22 05:30N 51°16' E 004°21'0 0.0
2015-Apr-22 04:23N 51°16' E 004°21'0 0.0
2015-Apr-22 03:32N 51°16' E 004°21'0 0.0
2015-Apr-22 02:32N 51°16' E 004°21'0 0.0
2015-Apr-22 01:23N 51°16' E 004°21'0 0.0
2015-Apr-22 00:32N 51°16' E 004°21'0 0.0
2015-Apr-21 23:32N 51°16' E 004°21'0 0.0
2015-Apr-21 22:29N 51°16' E 004°21'0 0.0
2015-Apr-21 21:29N 51°16' E 004°21'0 0.0
2015-Apr-21 20:29N 51°16' E 004°21'0 0.0
2015-Apr-21 19:20N 51°16' E 004°21'0 0.0
2015-Apr-21 18:32N 51°16' E 004°21'0 0.0
2015-Apr-21 17:29N 51°16' E 004°21'0 0.0
2015-Apr-21 16:05N 51°16' E 004°21'0 0.0
2015-Apr-21 15:29N 51°16' E 004°21'0 0.0
2015-Apr-21 14:32N 51°16' E 004°21'0 0.0
2015-Apr-21 13:32N 51°16' E 004°21'0 0.0
2015-Apr-21 12:26N 51°16' E 004°21'0 0.0
2015-Apr-21 11:26N 51°16' E 004°21'0 0.0
2015-Apr-21 10:26N 51°16' E 004°21'0 0.0
2015-Apr-21 09:23N 51°16' E 004°21'0 0.0
2015-Apr-21 08:32N 51°16' E 004°21'0 0.0
2015-Apr-21 07:29N 51°16' E 004°21'0 0.0
2015-Apr-21 06:29N 51°16' E 004°21'0 0.0
2015-Apr-21 05:29N 51°16' E 004°21'0 0.0
2015-Apr-21 04:32N 51°16' E 004°21'0 0.0
2015-Apr-21 03:32N 51°16' E 004°21'0 0.0
2015-Apr-21 02:26N 51°16' E 004°21'0 0.0
2015-Apr-21 01:26N 51°16' E 004°21'0 0.0
2015-Apr-21 00:32N 51°16' E 004°21'0 0.0
2015-Apr-20 23:23N 51°16' E 004°21'0 0.0
2015-Apr-20 22:26N 51°16' E 004°21'0 0.0
2015-Apr-20 21:29N 51°16' E 004°21'0 0.0
2015-Apr-20 20:29N 51°16' E 004°21'0 0.0
2015-Apr-20 19:32N 51°16' E 004°21'0 0.0
2015-Apr-20 18:32N 51°16' E 004°21'0 0.0
2015-Apr-20 17:32N 51°16' E 004°21'0 0.0
2015-Apr-20 16:29N 51°16' E 004°21'0 0.0
2015-Apr-20 15:29N 51°16' E 004°21'0 0.0
2015-Apr-20 14:29N 51°16' E 004°21'0 0.0
2015-Apr-20 13:29N 51°16' E 004°21'0 0.0
2015-Apr-20 12:29N 51°16' E 004°21'0 0.0
2015-Apr-20 11:29N 51°16' E 004°21'0 0.0
2015-Apr-20 10:20N 51°16' E 004°21'0 0.0
2015-Apr-20 09:32N 51°16' E 004°21'0 0.0
2015-Apr-20 08:20N 51°16' E 004°21'0 0.0
2015-Apr-20 07:32N 51°16' E 004°21'0 0.0
2015-Apr-20 06:32N 51°16' E 004°21'0 0.0
2015-Apr-20 05:32N 51°16' E 004°21'0 0.0
2015-Apr-20 04:26N 51°16' E 004°21'0 0.0
2015-Apr-20 03:32N 51°16' E 004°21'0 0.0
2015-Apr-20 02:23N 51°16' E 004°21'0 0.0
2015-Apr-20 01:32N 51°16' E 004°21'0 0.0
2015-Apr-20 00:32N 51°16' E 004°21'0 0.0
2015-Apr-19 23:29N 51°16' E 004°21'0 0.0
2015-Apr-19 22:26N 51°16' E 004°21'0 0.0
2015-Apr-19 21:11N 51°16' E 004°21'0 0.0
2015-Apr-19 20:32N 51°16' E 004°21'0 0.0
2015-Apr-19 19:32N 51°16' E 004°21'0 0.0
2015-Apr-19 18:32N 51°16' E 004°21'0 0.0
2015-Apr-19 17:32N 51°16' E 004°21'0 0.0
2015-Apr-19 16:32N 51°16' E 004°21'0 0.0
2015-Apr-19 15:32N 51°16' E 004°21'0 0.0
2015-Apr-19 14:23N 51°16' E 004°21'0 0.0
2015-Apr-19 13:29N 51°16' E 004°21'0 0.0
2015-Apr-19 12:32N 51°16' E 004°21'0 0.0
2015-Apr-19 11:29N 51°16' E 004°21'0 0.0
2015-Apr-19 10:29N 51°16' E 004°21'0 0.0
2015-Apr-19 09:32N 51°16' E 004°21'0 0.0
2015-Apr-19 08:23N 51°16' E 004°21'0 0.0
2015-Apr-19 07:29N 51°16' E 004°21'0 0.0
2015-Apr-19 06:29N 51°16' E 004°21'0 0.0
2015-Apr-19 05:26N 51°16' E 004°21'0 0.0
2015-Apr-19 04:32N 51°16' E 004°21'0 0.0
2015-Apr-19 03:32N 51°16' E 004°21'0 0.0
2015-Apr-19 02:33N 51°16' E 004°21'0 0.0
2015-Apr-19 01:32N 51°16' E 004°21'0 0.0
2015-Apr-19 00:31N 51°16' E 004°21'0 0.0
2015-Apr-18 23:33N 51°16' E 004°21'4 4.5
2015-Apr-18 22:34N 51°20' E 004°18'1 0.7
2015-Apr-18 21:33N 51°21' E 004°17'1 1.0
2015-Apr-18 20:34N 51°21' E 004°15'7 6.6
2015-Apr-18 19:34N 51°22' E 004°05'6 5.7
2015-Apr-18 18:33N 51°22' E 003°56'8 8.5
2015-Apr-18 17:33N 51°24' E 003°42'6 5.7
2015-Apr-18 16:33N 51°25' E 003°34'1010.2
2015-Apr-18 15:33N 51°24' E 003°17'1111.1
2015-Apr-18 14:33N 51°27' E 002°60'1312.7
2015-Apr-18 13:33N 51°38' E 003°11'10 9.7
2015-Apr-18 12:33N 51°46' E 003°19'1 1.3
2015-Apr-18 11:28N 51°47' E 003°21'0 0.1
2015-Apr-18 10:31N 51°47' E 003°21'0 0.0
2015-Apr-18 08:16N 51°47' E 003°21'0 0.0
2015-Apr-18 05:25N 51°47' E 003°21'0 0.0
2015-Apr-18 04:25N 51°47' E 003°21'0 0.2
2015-Apr-18 03:25N 51°47' E 003°21'0 0.1
2015-Apr-18 02:28N 51°47' E 003°21'0 0.0
2015-Apr-18 01:31N 51°47' E 003°21'0 0.0
2015-Apr-18 00:25N 51°47' E 003°21'0 0.2
2015-Apr-17 23:16N 51°47' E 003°21'0 0.0
2015-Apr-17 22:22N 51°47' E 003°21'0 0.0
2015-Apr-17 20:28N 51°47' E 003°21'0 0.0
2015-Apr-17 18:22N 51°47' E 003°21'0 0.0
2015-Apr-17 17:31N 51°47' E 003°21'0 0.0
2015-Apr-17 15:19N 51°47' E 003°21'0 0.3
2015-Apr-17 14:31N 51°47' E 003°21'0 0.0
2015-Apr-17 13:22N 51°47' E 003°21'0 0.0
2015-Apr-17 12:28N 51°47' E 003°21'0 0.1
2015-Apr-17 11:28N 51°47' E 003°21'0 0.1
2015-Apr-17 10:28N 51°47' E 003°21'0 0.0
2015-Apr-17 07:06N 51°47' E 003°21'0 0.0
2015-Apr-17 06:28N 51°47' E 003°21'0 0.0
2015-Apr-17 05:25N 51°47' E 003°21'0 0.0
2015-Apr-17 04:25N 51°47' E 003°21'0 0.0
2015-Apr-17 03:16N 51°47' E 003°21'0 0.2
2015-Apr-17 02:31N 51°47' E 003°21'0 0.1
2015-Apr-17 01:28N 51°47' E 003°21'0 0.0
2015-Apr-17 00:25N 51°47' E 003°21'0 0.0
2015-Apr-16 23:31N 51°47' E 003°21'0 0.3
2015-Apr-16 22:31N 51°47' E 003°21'0 0.0
2015-Apr-16 21:16N 51°47' E 003°21'0 0.0
2015-Apr-16 20:32N 51°47' E 003°21'0 0.0
2015-Apr-16 19:28N 51°47' E 003°21'0 0.0
2015-Apr-16 18:31N 51°47' E 003°21'0 0.0
2015-Apr-16 17:31N 51°47' E 003°21'0 0.0
2015-Apr-16 16:31N 51°47' E 003°21'0 0.0
2015-Apr-16 15:31N 51°47' E 003°21'0 0.1
2015-Apr-16 14:28N 51°47' E 003°21'0 0.2
2015-Apr-16 13:28N 51°47' E 003°21'0 0.1
2015-Apr-16 12:31N 51°47' E 003°21'0 0.0
2015-Apr-16 11:31N 51°47' E 003°21'0 0.1
2015-Apr-16 10:28N 51°47' E 003°21'0 0.2
2015-Apr-16 09:31N 51°47' E 003°21'0 0.0
2015-Apr-16 08:16N 51°47' E 003°21'0 0.0
2015-Apr-16 07:31N 51°47' E 003°21'0 0.0
2015-Apr-16 06:33N 51°47' E 003°21'0 0.0
2015-Apr-16 05:25N 51°47' E 003°21'0 0.0
2015-Apr-16 04:25N 51°47' E 003°21'0 0.0
2015-Apr-16 03:19N 51°47' E 003°21'0 0.2
2015-Apr-16 02:22N 51°47' E 003°21'0 0.1
2015-Apr-16 01:31N 51°47' E 003°21'0 0.0
2015-Apr-16 00:31N 51°47' E 003°21'0 0.0
2015-Apr-15 23:25N 51°47' E 003°21'0 0.0
2015-Apr-15 22:31N 51°47' E 003°21'0 0.2
2015-Apr-15 21:28N 51°47' E 003°21'0 0.0
2015-Apr-15 20:19N 51°47' E 003°21'0 0.0
2015-Apr-15 19:28N 51°47' E 003°21'0 0.0
2015-Apr-15 18:31N 51°47' E 003°21'0 0.0
2015-Apr-15 17:28N 51°47' E 003°21'0 0.0
2015-Apr-15 16:31N 51°47' E 003°21'0 0.2
2015-Apr-15 15:15N 51°47' E 003°21'0 0.1
2015-Apr-15 14:31N 51°47' E 003°21'0 0.0
2015-Apr-15 13:28N 51°47' E 003°21'0 0.0
2015-Apr-15 12:33N 51°47' E 003°21'0 0.0
2015-Apr-15 11:30N 51°47' E 003°21'0 0.0
2015-Apr-15 10:28N 51°47' E 003°21'0 0.0
2015-Apr-15 09:31N 51°47' E 003°21'  

Dump ship's entire track history